createdAt,value
2023-02-03T00:01:50.332Z,20.85
2023-02-03T00:04:17.029Z,20.10
2023-02-03T00:06:43.974Z,20.02
2023-02-03T00:09:10.869Z,21.30
2023-02-03T00:11:37.905Z,20.35
2023-02-03T00:14:05.516Z,23.70
2023-02-03T00:16:32.307Z,20.08
2023-02-03T00:19:00.071Z,20.50
2023-02-03T00:21:26.670Z,19.90
2023-02-03T00:23:54.727Z,20.33
2023-02-03T00:26:21.400Z,19.80
2023-02-03T00:28:47.976Z,19.98
2023-02-03T00:31:19.590Z,19.92
2023-02-03T00:33:46.563Z,20.50
2023-02-03T00:36:14.825Z,20.15
2023-02-03T00:38:41.363Z,20.30
2023-02-03T00:41:08.017Z,20.83
2023-02-03T00:43:34.648Z,20.17
2023-02-03T00:46:01.345Z,20.20
2023-02-03T00:48:27.994Z,20.17
2023-02-03T00:50:54.625Z,20.75
2023-02-03T00:53:21.200Z,19.52
2023-02-03T00:55:47.786Z,19.63
2023-02-03T00:58:14.344Z,20.17
2023-02-03T01:00:40.908Z,19.88
2023-02-03T01:03:07.459Z,19.30
2023-02-03T01:05:34.043Z,19.33
2023-02-03T01:08:01.444Z,19.77
2023-02-03T01:10:29.272Z,20.20
2023-02-03T01:12:55.941Z,20.25
2023-02-03T01:15:22.562Z,19.42
2023-02-03T01:17:49.149Z,19.90
2023-02-03T01:20:17.209Z,19.95
2023-02-03T01:22:43.871Z,20.10
2023-02-03T01:25:10.452Z,19.90
2023-02-03T01:27:37.063Z,20.30
2023-02-03T01:30:04.319Z,20.92
2023-02-03T01:32:30.927Z,20.13
2023-02-03T01:34:57.617Z,20.27
2023-02-03T01:37:24.161Z,21.77
2023-02-03T01:39:50.716Z,20.65
2023-02-03T01:42:17.242Z,21.08
2023-02-03T01:44:43.810Z,21.00
2023-02-03T01:47:39.090Z,21.05
2023-02-03T01:50:11.867Z,21.42
2023-02-03T01:52:41.980Z,21.88
2023-02-03T01:55:12.855Z,21.52
2023-02-03T01:57:46.475Z,22.92
2023-02-03T02:00:13.592Z,21.98
2023-02-03T02:02:42.925Z,21.80
2023-02-03T02:05:15.411Z,21.30
2023-02-03T02:07:43.512Z,21.02
2023-02-03T02:10:10.703Z,20.50
2023-02-03T02:12:37.568Z,20.30
2023-02-03T02:15:04.727Z,21.13
2023-02-03T02:17:34.190Z,21.02
2023-02-03T02:20:31.887Z,20.75
2023-02-03T02:23:46.695Z,20.58
2023-02-03T02:26:27.346Z,20.20
2023-02-03T02:29:00.010Z,20.77
2023-02-03T02:31:53.936Z,21.13
2023-02-03T02:34:20.493Z,20.50
2023-02-03T02:36:56.001Z,20.60
2023-02-03T02:39:38.708Z,19.52
2023-02-03T02:42:14.262Z,20.23
2023-02-03T02:44:53.924Z,20.20
2023-02-03T02:47:23.309Z,20.27
2023-02-03T02:50:02.725Z,21.25
2023-02-03T02:52:32.702Z,20.42
2023-02-03T02:55:06.680Z,19.75
2023-02-03T02:57:35.223Z,20.10
2023-02-03T03:00:02.644Z,21.23
2023-02-03T03:02:33.993Z,21.08
2023-02-03T03:05:02.579Z,20.35
2023-02-03T03:07:34.789Z,20.95
2023-02-03T03:10:07.769Z,21.13
2023-02-03T03:12:45.164Z,20.75
2023-02-03T03:15:16.321Z,21.10
2023-02-03T03:17:57.883Z,20.02
2023-02-03T03:20:27.237Z,20.63
2023-02-03T03:23:01.485Z,21.13
2023-02-03T03:25:39.473Z,20.67
2023-02-03T03:28:11.626Z,21.58
2023-02-03T03:30:39.461Z,21.20
2023-02-03T03:33:08.174Z,19.75
2023-02-03T03:35:55.473Z,21.05
2023-02-03T03:38:32.012Z,20.58
2023-02-03T03:41:19.691Z,20.40
2023-02-03T03:43:49.496Z,22.42
2023-02-03T03:46:28.209Z,21.40
2023-02-03T03:48:59.574Z,23.30
2023-02-03T03:51:28.181Z,22.58
2023-02-03T03:54:00.983Z,22.35
2023-02-03T03:56:41.836Z,22.27
2023-02-03T03:59:11.380Z,22.25
2023-02-03T04:01:39.448Z,23.08
2023-02-03T04:04:10.565Z,22.63
2023-02-03T04:06:40.117Z,22.58
2023-02-03T04:09:07.328Z,22.52
2023-02-03T04:11:52.355Z,23.05
2023-02-03T04:14:18.935Z,23.40
2023-02-03T04:16:45.468Z,23.38
2023-02-03T04:19:12.016Z,22.58
2023-02-03T04:21:38.612Z,22.92
2023-02-03T04:24:05.539Z,22.35
2023-02-03T04:26:32.135Z,23.52
2023-02-03T04:28:58.656Z,23.00
2023-02-03T04:31:25.333Z,23.98
2023-02-03T04:33:51.929Z,23.25
2023-02-03T04:36:18.512Z,23.35
2023-02-03T04:38:45.051Z,23.17
2023-02-03T04:41:11.824Z,22.98
2023-02-03T04:43:38.357Z,23.40
2023-02-03T04:46:05.083Z,22.85
2023-02-03T04:48:31.636Z,22.25
2023-02-03T04:51:05.940Z,22.40
2023-02-03T04:53:33.361Z,23.60
2023-02-03T04:56:00.301Z,23.90
2023-02-03T04:58:27.392Z,23.38
2023-02-03T05:00:54.983Z,23.52
2023-02-03T05:03:24.874Z,22.77
2023-02-03T05:05:52.289Z,24.88
2023-02-03T05:08:18.832Z,25.13
2023-02-03T05:10:45.397Z,23.27
2023-02-03T05:13:12.107Z,23.60
2023-02-03T05:15:38.664Z,24.17
2023-02-03T05:18:05.249Z,23.90
2023-02-03T05:20:31.777Z,24.30
2023-02-03T05:22:59.089Z,24.83
2023-02-03T05:25:25.747Z,23.63
2023-02-03T05:27:52.297Z,22.95
2023-02-03T05:30:19.139Z,22.92
2023-02-03T05:32:45.726Z,22.35
2023-02-03T05:35:12.256Z,21.10
2023-02-03T05:37:38.820Z,21.80
2023-02-03T05:40:24.410Z,21.35
2023-02-03T05:42:50.989Z,22.35
2023-02-03T05:45:17.663Z,20.70
2023-02-03T05:47:44.204Z,20.83
2023-02-03T05:50:10.946Z,19.92
2023-02-03T05:52:37.618Z,20.27
2023-02-03T05:55:04.570Z,20.55
2023-02-03T05:57:32.355Z,20.15
2023-02-03T05:59:59.076Z,19.65
2023-02-03T06:02:25.637Z,19.55
2023-02-03T06:04:52.218Z,20.88
2023-02-03T06:07:18.746Z,20.20
2023-02-03T06:09:45.370Z,20.00
2023-02-03T06:12:11.955Z,19.95
2023-02-03T06:14:38.533Z,19.83
2023-02-03T06:17:05.119Z,20.13
2023-02-03T06:19:31.827Z,21.27
2023-02-03T06:21:58.365Z,20.83
2023-02-03T06:24:24.945Z,20.27
2023-02-03T06:26:51.491Z,20.13
2023-02-03T06:29:18.178Z,19.58
2023-02-03T06:31:44.982Z,19.40
2023-02-03T06:34:11.734Z,20.30
2023-02-03T06:36:38.328Z,19.95
2023-02-03T06:39:04.873Z,19.70
2023-02-03T06:41:32.825Z,20.75
2023-02-03T06:44:00.221Z,20.65
2023-02-03T06:46:30.159Z,20.70
2023-02-03T06:48:56.917Z,22.35
2023-02-03T06:51:24.873Z,22.80
2023-02-03T06:53:51.679Z,23.10
2023-02-03T06:56:18.289Z,23.73
2023-02-03T06:58:45.166Z,21.70
2023-02-03T07:01:11.783Z,21.83
2023-02-03T07:03:38.524Z,19.27
2023-02-03T07:06:05.379Z,19.80
2023-02-03T07:08:31.984Z,19.17
2023-02-03T07:10:58.552Z,19.33
2023-02-03T07:13:25.138Z,19.52
2023-02-03T07:15:51.889Z,19.75
2023-02-03T07:18:35.988Z,19.90
2023-02-03T07:21:07.357Z,20.42
2023-02-03T07:23:34.492Z,19.40
2023-02-03T07:26:02.989Z,19.85
2023-02-03T07:28:29.527Z,19.83
2023-02-03T07:30:56.149Z,20.40
2023-02-03T07:33:24.392Z,20.48
2023-02-03T07:35:55.107Z,19.27
2023-02-03T07:38:22.798Z,20.52
2023-02-03T07:40:49.439Z,20.77
2023-02-03T07:43:15.982Z,20.88
2023-02-03T07:45:42.885Z,20.77
2023-02-03T07:48:09.560Z,19.80
2023-02-03T07:50:36.099Z,20.77
2023-02-03T07:53:03.178Z,19.55
2023-02-03T07:55:29.841Z,20.92
2023-02-03T07:57:57.264Z,19.83
2023-02-03T08:00:24.700Z,19.17
2023-02-03T08:02:51.988Z,19.80
2023-02-03T08:05:18.886Z,19.85
2023-02-03T08:07:46.351Z,19.73
2023-02-03T08:10:15.486Z,20.33
2023-02-03T08:12:46.633Z,21.25
2023-02-03T08:15:14.217Z,21.55
2023-02-03T08:17:41.968Z,22.55
2023-02-03T08:20:09.738Z,23.58
2023-02-03T08:22:36.410Z,27.70
2023-02-03T08:25:03.917Z,27.58
2023-02-03T08:27:35.216Z,25.67
2023-02-03T08:30:01.953Z,24.98
2023-02-03T08:32:28.538Z,22.48
2023-02-03T08:34:55.109Z,21.60
2023-02-03T08:37:30.558Z,21.20
2023-02-03T08:39:57.381Z,21.00
2023-02-03T08:42:25.375Z,21.90
2023-02-03T08:44:51.951Z,20.95
2023-02-03T08:47:18.781Z,20.40
2023-02-03T08:49:45.520Z,22.10
2023-02-03T08:52:13.523Z,21.95
2023-02-03T08:54:40.168Z,22.05
2023-02-03T08:57:08.566Z,22.58
2023-02-03T08:59:37.850Z,21.75
2023-02-03T09:02:07.932Z,22.00
2023-02-03T09:04:34.526Z,22.25
2023-02-03T09:07:04.425Z,22.52
2023-02-03T09:09:32.386Z,24.20
2023-02-03T09:12:02.417Z,23.23
2023-02-03T09:14:30.429Z,24.73
2023-02-03T09:16:57.276Z,27.02
2023-02-03T09:19:24.083Z,24.95
2023-02-03T09:21:50.913Z,23.00
2023-02-03T09:24:18.644Z,21.25
2023-02-03T09:26:45.688Z,22.38
2023-02-03T09:29:13.544Z,25.17
2023-02-03T09:31:40.272Z,23.30
2023-02-03T09:34:07.049Z,30.95
2023-02-03T09:36:35.027Z,34.28
2023-02-03T09:39:02.049Z,34.20
2023-02-03T09:42:06.166Z,40.13
2023-02-03T09:44:51.652Z,37.38
2023-02-03T09:47:28.794Z,34.53
2023-02-03T09:49:58.917Z,34.35
2023-02-03T09:52:32.547Z,34.15
2023-02-03T09:55:21.564Z,31.90
2023-02-03T09:57:56.864Z,32.15
2023-02-03T10:00:28.853Z,30.73
2023-02-03T10:03:15.878Z,29.00
2023-02-03T10:06:19.920Z,28.50
2023-02-03T10:09:09.692Z,29.92
2023-02-03T10:11:53.283Z,29.75
2023-02-03T10:14:39.043Z,29.20
2023-02-03T10:17:30.229Z,31.15
2023-02-03T10:20:06.130Z,29.67
2023-02-03T10:22:38.107Z,28.38
2023-02-03T10:25:17.926Z,30.40
2023-02-03T10:27:45.241Z,28.40
2023-02-03T10:30:26.778Z,30.42
2023-02-03T10:33:11.823Z,27.20
2023-02-03T10:36:02.924Z,28.20
2023-02-03T10:38:38.534Z,27.15
2023-02-03T10:41:05.311Z,29.83
2023-02-03T10:43:48.063Z,31.17
2023-02-03T10:46:20.769Z,28.30
2023-02-03T10:48:47.795Z,28.23
2023-02-03T10:51:24.737Z,28.73
2023-02-03T10:53:53.515Z,29.73
2023-02-03T10:56:27.014Z,30.95
2023-02-03T10:58:57.032Z,35.63
2023-02-03T11:01:26.600Z,35.40
2023-02-03T11:04:01.771Z,33.33
2023-02-03T11:06:31.531Z,41.42
2023-02-03T11:08:58.553Z,42.72
2023-02-03T11:11:34.233Z,43.58
2023-02-03T11:14:03.585Z,40.92
2023-02-03T11:16:33.361Z,40.53
2023-02-03T11:19:05.728Z,43.97
2023-02-03T11:21:38.013Z,46.25
2023-02-03T11:24:25.095Z,39.70
2023-02-03T11:27:04.724Z,52.55
2023-02-03T11:29:34.711Z,44.38
2023-02-03T11:32:20.173Z,44.03
2023-02-03T11:34:58.344Z,57.67
2023-02-03T11:37:42.028Z,57.60
2023-02-03T11:40:08.532Z,55.70
2023-02-03T11:42:37.303Z,64.65
2023-02-03T11:45:25.735Z,63.50
2023-02-03T11:48:10.540Z,64.45
2023-02-03T11:50:39.650Z,68.93
2023-02-03T11:53:56.576Z,72.22
2023-02-03T11:56:51.694Z,73.68
2023-02-03T11:59:44.095Z,75.43
2023-02-03T12:02:44.672Z,88.40
2023-02-03T12:05:20.226Z,91.93
2023-02-03T12:08:30.050Z,93.32
2023-02-03T12:11:11.884Z,99.25
2023-02-03T12:14:01.203Z,97.72
2023-02-03T12:16:52.302Z,98.88
2023-02-03T12:19:29.787Z,96.07
2023-02-03T12:22:10.369Z,97.78
2023-02-03T12:24:51.415Z,91.80
2023-02-03T12:28:03.339Z,96.60
2023-02-03T12:30:42.953Z,93.35
2023-02-03T12:33:21.045Z,91.35
2023-02-03T12:35:58.798Z,91.93
2023-02-03T12:38:52.660Z,86.65
2023-02-03T12:41:40.460Z,92.75
2023-02-03T12:44:32.765Z,94.80
2023-02-03T12:47:16.189Z,97.07
2023-02-03T12:49:48.680Z,82.25
2023-02-03T12:52:22.948Z,89.35
2023-02-03T12:55:08.415Z,88.40
2023-02-03T12:57:48.850Z,84.43
2023-02-03T13:00:50.288Z,82.85
2023-02-03T13:03:19.749Z,80.25
2023-02-03T13:06:18.353Z,82.28
2023-02-03T13:08:56.235Z,75.88
2023-02-03T13:11:31.591Z,82.13
2023-02-03T13:14:11.430Z,76.72
2023-02-03T13:16:43.523Z,75.05
2023-02-03T13:19:21.835Z,73.13
2023-02-03T13:21:49.632Z,67.93
2023-02-03T13:24:16.545Z,71.82
2023-02-03T13:26:59.190Z,70.03
2023-02-03T13:29:57.745Z,69.03
2023-02-03T13:32:30.213Z,64.25
2023-02-03T13:35:33.854Z,65.57
2023-02-03T13:38:16.114Z,70.97
2023-02-03T13:41:14.160Z,69.28
2023-02-03T13:43:46.611Z,65.10
2023-02-03T13:46:26.829Z,66.35
2023-02-03T13:48:56.922Z,65.63
2023-02-03T13:51:36.499Z,62.20
2023-02-03T13:54:17.322Z,65.30
2023-02-03T13:56:58.534Z,62.05
2023-02-03T13:59:33.001Z,60.13
2023-02-03T14:02:25.831Z,62.08
2023-02-03T14:04:57.999Z,58.40
2023-02-03T14:07:40.846Z,56.80
2023-02-03T14:10:15.798Z,59.85
2023-02-03T14:12:51.185Z,58.65
2023-02-03T14:15:28.288Z,57.72
2023-02-03T14:18:00.594Z,62.33
2023-02-03T14:20:27.234Z,58.80
2023-02-03T14:22:58.981Z,65.28
2023-02-03T14:25:27.362Z,57.13
2023-02-03T14:28:07.755Z,61.13
2023-02-03T14:31:03.464Z,63.72
2023-02-03T14:33:48.288Z,53.60
2023-02-03T14:36:39.237Z,62.67
2023-02-03T14:39:37.419Z,57.72
2023-02-03T14:42:29.110Z,65.32
2023-02-03T14:45:14.470Z,64.90
2023-02-03T14:47:47.047Z,57.70
2023-02-03T14:50:28.977Z,59.05
2023-02-03T14:53:21.149Z,56.85
2023-02-03T14:56:12.348Z,117.00
2023-02-03T14:59:09.856Z,62.60
2023-02-03T15:01:36.649Z,68.97
2023-02-03T15:04:12.680Z,63.17
2023-02-03T15:06:51.154Z,57.88
2023-02-03T15:09:23.777Z,57.10
2023-02-03T15:11:50.488Z,56.35
2023-02-03T15:14:21.677Z,58.10
2023-02-03T15:16:56.011Z,62.55
2023-02-03T15:19:25.376Z,52.38
2023-02-03T15:21:52.669Z,59.22
2023-02-03T15:24:23.849Z,57.47
2023-02-03T15:26:55.937Z,54.08
2023-02-03T15:29:32.709Z,65.95
2023-02-03T15:32:11.223Z,64.97
2023-02-03T15:34:48.819Z,57.08
2023-02-03T15:37:29.952Z,54.60
2023-02-03T15:40:06.425Z,57.40
2023-02-03T15:42:36.524Z,63.92
2023-02-03T15:45:13.807Z,53.33
2023-02-03T15:47:47.026Z,53.83
2023-02-03T15:50:30.721Z,52.53
2023-02-03T15:53:04.068Z,59.97
2023-02-03T15:55:41.997Z,53.15
2023-02-03T15:58:22.287Z,63.83
2023-02-03T16:00:55.424Z,58.22
2023-02-03T16:03:47.451Z,53.97
2023-02-03T16:06:40.379Z,57.22
2023-02-03T16:09:27.387Z,43.35
2023-02-03T16:12:19.076Z,51.38
2023-02-03T16:14:46.805Z,49.13
2023-02-03T16:17:33.089Z,48.88
2023-02-03T16:20:11.500Z,48.33
2023-02-03T16:22:44.107Z,51.15
2023-02-03T16:25:29.598Z,48.13
2023-02-03T16:28:19.600Z,46.28
2023-02-03T16:31:17.563Z,46.08
2023-02-03T16:34:08.456Z,45.72
2023-02-03T16:36:59.534Z,41.10
2023-02-03T16:39:45.538Z,44.80
2023-02-03T16:42:35.234Z,46.63
2023-02-03T16:45:21.166Z,41.00
2023-02-03T16:48:06.560Z,48.53
2023-02-03T16:50:53.930Z,46.70
2023-02-03T16:53:26.345Z,53.72
2023-02-03T16:55:56.030Z,52.80
2023-02-03T16:58:23.500Z,51.67
2023-02-03T17:00:52.236Z,52.08
2023-02-03T17:03:24.229Z,48.55
2023-02-03T17:05:52.339Z,54.03
2023-02-03T17:08:21.934Z,53.95
2023-02-03T17:10:49.437Z,53.70
2023-02-03T17:13:17.829Z,53.38
2023-02-03T17:15:46.846Z,54.80
2023-02-03T17:18:17.799Z,53.00
2023-02-03T17:20:45.403Z,58.67
2023-02-03T17:23:13.474Z,74.55
2023-02-03T17:25:40.511Z,55.03
2023-02-03T17:28:09.028Z,59.83
2023-02-03T17:30:37.398Z,56.97
2023-02-03T17:33:16.640Z,56.55
2023-02-03T17:35:45.303Z,56.50
2023-02-03T17:38:14.353Z,56.00
2023-02-03T17:54:34.337Z,49.95
2023-02-03T17:57:00.858Z,51.60
2023-02-03T17:59:27.503Z,52.33
2023-02-03T18:01:54.080Z,48.38
2023-02-03T18:04:20.776Z,48.35
2023-02-03T18:06:47.334Z,48.28
2023-02-03T18:09:16.552Z,47.67
2023-02-03T18:11:43.813Z,47.38
2023-02-03T18:14:12.155Z,46.88
2023-02-03T18:16:38.909Z,48.13
2023-02-03T18:19:07.867Z,47.63
2023-02-03T18:21:37.747Z,45.50
2023-02-03T18:24:05.869Z,49.05
2023-02-03T18:26:36.981Z,47.88
2023-02-03T18:29:05.210Z,48.08
2023-02-03T18:31:32.470Z,47.40
2023-02-03T18:34:03.670Z,47.50
2023-02-03T18:36:30.627Z,48.03
2023-02-03T18:38:57.854Z,45.88
2023-02-03T18:41:25.768Z,45.85
2023-02-03T18:43:52.447Z,49.88
2023-02-03T18:46:31.753Z,46.40
2023-02-03T18:48:58.784Z,43.83
2023-02-03T18:51:26.478Z,47.08
2023-02-03T18:53:57.794Z,42.33
2023-02-03T18:56:35.140Z,40.78
2023-02-03T18:59:05.727Z,45.30
2023-02-03T19:01:32.916Z,52.13
2023-02-03T19:04:01.851Z,43.53
2023-02-03T19:06:30.577Z,38.30
2023-02-03T19:08:58.828Z,38.95
2023-02-03T19:11:27.024Z,38.25
2023-02-03T19:13:53.887Z,35.15
2023-02-03T19:16:20.560Z,73.22
2023-02-03T19:18:47.513Z,36.40
2023-02-03T19:21:14.397Z,38.33
2023-02-03T19:23:42.357Z,52.00
2023-02-03T19:26:10.193Z,67.45
2023-02-03T19:28:37.758Z,42.90
2023-02-03T19:31:15.109Z,38.83
2023-02-03T19:33:42.236Z,40.75
2023-02-03T19:36:09.797Z,35.97
2023-02-03T19:38:36.403Z,36.78
2023-02-03T19:41:03.333Z,32.65
2023-02-03T19:43:30.796Z,30.52
2023-02-03T19:45:57.327Z,30.77
2023-02-03T19:48:23.900Z,28.58
2023-02-03T19:50:50.612Z,27.30
2023-02-03T19:53:18.240Z,29.25
2023-02-03T19:55:46.273Z,26.85
2023-02-03T19:58:13.994Z,25.40
2023-02-03T20:00:41.703Z,24.92
2023-02-03T20:03:08.448Z,23.52
2023-02-03T20:05:36.284Z,23.05
2023-02-03T20:08:03.859Z,22.65
2023-02-03T20:10:32.543Z,21.15
2023-02-03T20:12:59.425Z,22.25
2023-02-03T20:15:26.910Z,22.88
2023-02-03T20:17:53.826Z,22.25
2023-02-03T20:20:20.968Z,21.70
2023-02-03T20:22:48.362Z,21.50
2023-02-03T20:25:15.444Z,21.23
2023-02-03T20:27:42.168Z,21.35
2023-02-03T20:30:09.376Z,21.65
2023-02-03T20:32:36.202Z,21.63
2023-02-03T20:35:04.480Z,21.92
2023-02-03T20:37:31.072Z,22.05
2023-02-03T20:39:57.691Z,21.95
2023-02-03T20:42:24.302Z,22.45
2023-02-03T20:44:50.876Z,25.30
2023-02-03T20:47:22.715Z,24.67
2023-02-03T20:49:49.762Z,25.48
2023-02-03T20:52:19.853Z,25.63
2023-02-03T20:54:47.865Z,24.50
2023-02-03T20:57:18.950Z,22.38
2023-02-03T20:59:46.354Z,23.88
2023-02-03T21:02:51.993Z,24.77
2023-02-03T21:05:27.379Z,20.80
2023-02-03T21:07:54.445Z,19.80
2023-02-03T21:10:24.995Z,18.83
2023-02-03T21:12:52.164Z,20.38
2023-02-03T21:15:32.087Z,19.35
2023-02-03T21:17:58.737Z,19.27
2023-02-03T21:20:31.253Z,20.75
2023-02-03T21:22:58.436Z,20.73
2023-02-03T21:25:31.732Z,21.02
2023-02-03T21:27:59.773Z,21.42
2023-02-03T21:30:30.894Z,22.10
2023-02-03T21:32:59.031Z,23.35
2023-02-03T21:35:32.131Z,23.55
2023-02-03T21:38:02.468Z,23.58
2023-02-03T21:40:33.731Z,25.40
2023-02-03T21:43:03.205Z,27.33
2023-02-03T21:45:37.900Z,27.02
2023-02-03T21:48:24.211Z,25.40
2023-02-03T21:50:51.823Z,25.88
2023-02-03T21:53:35.641Z,26.08
2023-02-03T21:56:39.985Z,28.50
2023-02-03T21:59:16.475Z,26.13
2023-02-03T22:01:43.142Z,27.25
2023-02-03T22:04:09.759Z,25.98
2023-02-03T22:06:41.906Z,28.05
2023-02-03T22:09:11.996Z,27.30
2023-02-03T22:11:38.591Z,27.85
2023-02-03T22:14:05.356Z,26.90
2023-02-03T22:16:32.265Z,27.55
2023-02-03T22:18:58.836Z,29.15
2023-02-03T22:21:26.400Z,26.83
2023-02-03T22:23:53.029Z,27.40
2023-02-03T22:26:20.191Z,27.50
2023-02-03T22:28:47.283Z,27.45
2023-02-03T22:31:15.031Z,27.50
2023-02-03T22:33:42.372Z,27.48
2023-02-03T22:36:10.613Z,29.17
2023-02-03T22:38:39.143Z,29.08
2023-02-03T22:41:06.472Z,29.30
2023-02-03T22:43:33.895Z,29.70
2023-02-03T22:46:01.829Z,28.92
2023-02-03T22:48:29.243Z,28.73
2023-02-03T22:50:56.353Z,30.60
2023-02-03T22:53:22.916Z,30.75
2023-02-03T22:55:49.448Z,30.50
2023-02-03T22:58:16.020Z,30.45
2023-02-03T23:00:42.791Z,30.67
2023-02-03T23:03:09.529Z,30.52
2023-02-03T23:05:36.137Z,30.48
2023-02-03T23:08:02.783Z,33.58
2023-02-03T23:10:31.099Z,31.73
2023-02-03T23:13:00.735Z,32.78
2023-02-03T23:15:28.100Z,30.48
2023-02-03T23:17:54.764Z,32.85
2023-02-03T23:20:21.524Z,31.65
2023-02-03T23:22:48.357Z,32.65
2023-02-03T23:25:15.118Z,30.60
2023-02-03T23:27:42.223Z,31.15
2023-02-03T23:30:09.693Z,29.02
2023-02-03T23:32:36.313Z,30.90
2023-02-03T23:35:21.396Z,28.70
2023-02-03T23:40:14.751Z,26.98
2023-02-03T23:42:41.445Z,24.83
2023-02-03T23:45:11.720Z,25.35
2023-02-03T23:47:43.103Z,26.05
2023-02-03T23:50:11.524Z,28.17
2023-02-03T23:52:38.214Z,25.38
2023-02-03T23:55:07.772Z,24.23
2023-02-03T23:57:34.481Z,24.52
